createdAt,value
2019-05-15T00:01:15.764Z,5.07
2019-05-15T00:03:49.286Z,5.09
2019-05-15T00:06:20.735Z,5.14
2019-05-15T00:08:52.525Z,5.19
2019-05-15T00:11:24.429Z,5.18
2019-05-15T00:13:58.800Z,5.28
2019-05-15T00:16:30.118Z,5.31
2019-05-15T00:19:02.005Z,5.33
2019-05-15T00:21:34.001Z,5.29
2019-05-15T00:24:05.876Z,5.33
2019-05-15T00:26:38.550Z,5.41
2019-05-15T00:29:15.818Z,5.41
2019-05-15T00:31:44.282Z,5.40
2019-05-15T00:34:18.125Z,5.40
2019-05-15T00:36:49.864Z,5.42
2019-05-15T00:39:21.759Z,5.42
2019-05-15T00:41:54.845Z,5.52
2019-05-15T00:44:28.021Z,5.43
2019-05-15T00:47:00.049Z,5.42
2019-05-15T00:49:32.042Z,5.48
2019-05-15T00:52:04.077Z,5.47
2019-05-15T00:54:35.971Z,5.53
2019-05-15T00:57:08.568Z,5.63
2019-05-15T00:59:40.505Z,5.62
2019-05-15T01:02:12.437Z,5.78
2019-05-15T01:04:44.332Z,5.72
2019-05-15T01:07:18.665Z,5.58
2019-05-15T01:09:49.820Z,5.63
2019-05-15T01:12:21.752Z,5.50
2019-05-15T01:14:53.669Z,5.36
2019-05-15T01:17:25.533Z,5.46
2019-05-15T01:19:58.842Z,5.33
2019-05-15T01:22:30.101Z,5.36
2019-05-15T01:25:01.883Z,5.22
2019-05-15T01:27:34.792Z,5.05
2019-05-15T01:30:09.081Z,4.87
2019-05-15T01:32:40.558Z,5.03
2019-05-15T01:35:12.824Z,4.89
2019-05-15T01:37:44.770Z,4.82
2019-05-15T01:40:18.212Z,4.77
2019-05-15T01:42:51.208Z,4.78
2019-05-15T01:45:23.142Z,4.87
2019-05-15T01:47:55.044Z,4.86
2019-05-15T01:50:29.780Z,4.87
2019-05-15T01:53:04.941Z,5.05
2019-05-15T01:55:39.116Z,4.97
2019-05-15T01:58:12.628Z,5.12
2019-05-15T02:00:44.756Z,5.03
2019-05-15T02:03:18.401Z,4.98
2019-05-15T02:05:50.866Z,5.13
2019-05-15T02:08:22.790Z,5.00
2019-05-15T02:10:54.765Z,5.10
2019-05-15T02:13:28.211Z,5.05
2019-05-15T02:16:00.179Z,4.96
2019-05-15T02:18:32.091Z,5.01
2019-05-15T02:21:06.682Z,4.98
2019-05-15T02:23:38.810Z,4.94
2019-05-15T02:26:11.943Z,4.98
2019-05-15T02:38:10.166Z,5.09
2019-05-15T02:40:42.936Z,5.26
2019-05-15T02:43:18.941Z,5.35
2019-05-15T02:46:22.886Z,5.28
2019-05-15T02:48:55.071Z,5.16
2019-05-15T02:51:29.993Z,5.17
2019-05-15T02:54:00.695Z,5.22
2019-05-15T02:56:32.837Z,5.20
2019-05-15T02:59:04.844Z,5.25
2019-05-15T03:01:40.054Z,5.36
2019-05-15T03:04:10.858Z,5.31
2019-05-15T03:06:42.879Z,5.22
2019-05-15T03:09:14.913Z,5.25
2019-05-15T03:11:49.395Z,5.26
2019-05-15T03:14:21.691Z,5.25
2019-05-15T03:16:55.453Z,5.41
2019-05-15T03:19:29.915Z,5.39
2019-05-15T03:22:01.183Z,5.37
2019-05-15T03:24:33.333Z,5.52
2019-05-15T03:27:05.230Z,5.46
2019-05-15T03:29:40.309Z,5.53
2019-05-15T03:32:25.225Z,5.59
2019-05-15T03:34:47.218Z,5.75
2019-05-15T03:37:22.291Z,5.52
2019-05-15T03:39:52.134Z,5.61
2019-05-15T03:42:24.279Z,5.72
2019-05-15T03:44:59.407Z,5.71
2019-05-15T03:48:31.447Z,5.65
2019-05-15T03:58:28.745Z,5.66
2019-05-15T04:01:00.553Z,5.71
2019-05-15T04:03:32.622Z,5.80
2019-05-15T04:06:04.568Z,5.77
2019-05-15T04:08:39.134Z,5.68
2019-05-15T04:11:10.522Z,5.66
2019-05-15T04:13:42.492Z,5.74
2019-05-15T04:16:14.525Z,5.71
2019-05-15T04:18:49.073Z,5.85
2019-05-15T04:21:21.370Z,5.98
2019-05-15T04:23:58.599Z,5.77
2019-05-15T04:26:33.560Z,6.00
2019-05-15T04:29:09.459Z,5.91
2019-05-15T04:31:51.933Z,6.03
2019-05-15T04:34:13.090Z,5.73
2019-05-15T04:36:45.052Z,5.78
2019-05-15T04:39:19.565Z,5.97
2019-05-15T04:41:52.968Z,5.98
2019-05-15T04:44:24.968Z,6.15
2019-05-15T04:46:59.489Z,5.93
2019-05-15T04:49:30.505Z,6.10
2019-05-15T04:52:03.874Z,6.29
2019-05-15T04:54:35.993Z,6.30
2019-05-15T04:57:09.272Z,6.26
2019-05-15T04:59:41.390Z,6.31
2019-05-15T05:02:19.320Z,6.38
2019-05-15T05:04:49.184Z,6.21
2019-05-15T05:07:22.808Z,6.51
2019-05-15T05:09:54.790Z,6.40
2019-05-15T05:12:28.936Z,6.56
2019-05-15T05:15:01.073Z,6.48
2019-05-15T05:17:33.174Z,6.60
2019-05-15T05:20:05.215Z,6.56
2019-05-15T05:22:39.247Z,6.54
2019-05-15T05:25:11.111Z,6.11
2019-05-15T05:27:42.374Z,6.01
2019-05-15T05:30:14.707Z,6.13
2019-05-15T05:32:45.875Z,6.35
2019-05-15T05:35:18.557Z,6.36
2019-05-15T05:37:49.936Z,6.46
2019-05-15T05:40:21.814Z,6.36
2019-05-15T05:42:53.868Z,6.11
2019-05-15T05:45:28.722Z,6.52
2019-05-15T05:48:00.304Z,6.67
2019-05-15T05:50:58.407Z,6.72
2019-05-15T05:53:30.424Z,6.74
2019-05-15T05:56:02.316Z,6.84
2019-05-15T05:58:34.198Z,6.92
2019-05-15T06:01:06.106Z,6.69
2019-05-15T06:03:38.546Z,6.66
2019-05-15T06:06:10.767Z,6.79
2019-05-15T06:08:42.620Z,6.48
2019-05-15T06:11:13.766Z,6.61
2019-05-15T06:13:44.927Z,7.09
2019-05-15T06:16:18.851Z,7.12
2019-05-15T06:18:50.322Z,7.23
2019-05-15T06:21:22.162Z,6.81
2019-05-15T06:23:56.018Z,7.12
2019-05-15T06:26:28.263Z,7.23
2019-05-15T06:29:00.380Z,7.15
2019-05-15T06:31:32.267Z,6.73
2019-05-15T06:34:08.143Z,7.25
2019-05-15T06:36:39.430Z,7.24
2019-05-15T06:39:11.304Z,7.09
2019-05-15T06:41:43.280Z,7.05
2019-05-15T06:44:15.215Z,7.50
2019-05-15T06:46:48.307Z,7.65
2019-05-15T06:49:20.359Z,7.62
2019-05-15T06:51:52.195Z,7.05
2019-05-15T06:54:24.272Z,6.94
2019-05-15T06:56:58.324Z,6.86
2019-05-15T06:59:30.790Z,6.96
2019-05-15T07:02:02.626Z,6.93
2019-05-15T07:04:34.511Z,6.64
2019-05-15T07:07:10.471Z,6.55
2019-05-15T07:09:39.394Z,6.63
2019-05-15T07:12:12.906Z,6.41
2019-05-15T07:14:44.960Z,6.74
2019-05-15T07:17:17.760Z,6.95
2019-05-15T07:19:51.187Z,7.19
2019-05-15T07:22:22.446Z,7.21
2019-05-15T07:24:54.518Z,7.46
2019-05-15T07:27:28.308Z,6.98
2019-05-15T07:30:00.012Z,7.54
2019-05-15T07:32:31.954Z,7.64
2019-05-15T07:35:03.832Z,7.15
2019-05-15T07:37:38.452Z,7.53
2019-05-15T07:40:12.029Z,7.18
2019-05-15T07:42:44.044Z,7.56
2019-05-15T07:45:19.682Z,7.36
2019-05-15T07:47:49.989Z,7.86
2019-05-15T07:50:22.007Z,8.05
2019-05-15T07:52:53.927Z,7.97
2019-05-15T07:55:25.861Z,8.06
2019-05-15T07:57:59.205Z,7.96
2019-05-15T08:00:32.003Z,8.27
2019-05-15T08:03:03.883Z,8.23
2019-05-15T08:05:38.082Z,8.38
2019-05-15T08:08:09.502Z,8.57
2019-05-15T08:10:42.970Z,9.17
2019-05-15T08:13:14.828Z,9.02
2019-05-15T08:15:48.651Z,9.21
2019-05-15T08:18:20.431Z,9.12
2019-05-15T08:20:52.381Z,8.73
2019-05-15T08:23:28.432Z,8.62
2019-05-15T08:25:59.757Z,8.96
2019-05-15T08:28:31.493Z,9.03
2019-05-15T08:31:06.488Z,8.34
2019-05-15T08:33:38.824Z,8.02
2019-05-15T08:36:10.535Z,8.73
2019-05-15T08:38:42.512Z,9.35
2019-05-15T08:41:15.648Z,9.07
2019-05-15T08:43:48.633Z,9.22
2019-05-15T08:46:20.625Z,9.33
2019-05-15T08:48:52.427Z,8.97
2019-05-15T08:51:24.442Z,9.13
2019-05-15T08:53:58.011Z,9.27
2019-05-15T08:56:29.940Z,9.02
2019-05-15T08:59:02.184Z,8.99
2019-05-15T09:01:34.047Z,9.56
2019-05-15T09:04:05.921Z,9.85
2019-05-15T09:06:41.297Z,9.37
2019-05-15T09:09:11.419Z,8.50
2019-05-15T09:11:43.319Z,9.37
2019-05-15T09:14:15.100Z,9.31
2019-05-15T09:16:48.934Z,9.26
2019-05-15T09:19:20.403Z,8.91
2019-05-15T09:21:52.429Z,9.47
2019-05-15T09:24:24.230Z,9.89
2019-05-15T09:26:59.361Z,10.07
2019-05-15T09:29:30.541Z,9.74
2019-05-15T09:32:01.712Z,9.37
2019-05-15T09:34:46.730Z,9.11
2019-05-15T09:37:08.550Z,9.04
2019-05-15T09:39:40.560Z,9.29
2019-05-15T09:42:12.404Z,9.35
2019-05-15T09:44:44.400Z,9.54
2019-05-15T09:47:19.009Z,9.48
2019-05-15T09:49:50.915Z,9.77
2019-05-15T09:52:25.557Z,9.41
2019-05-15T09:54:59.317Z,9.74
2019-05-15T09:57:31.472Z,10.33
2019-05-15T10:00:03.343Z,9.65
2019-05-15T10:02:35.363Z,10.47
2019-05-15T10:05:11.101Z,10.52
2019-05-15T10:07:42.063Z,10.16
2019-05-15T10:10:14.832Z,10.74
2019-05-15T10:12:49.630Z,10.72
2019-05-15T10:15:23.747Z,11.28
2019-05-15T10:18:02.639Z,11.58
2019-05-15T10:20:34.536Z,11.16
2019-05-15T10:23:08.813Z,11.12
2019-05-15T10:25:40.799Z,10.62
2019-05-15T10:28:18.665Z,10.48
2019-05-15T10:30:50.063Z,11.09
2019-05-15T10:33:24.928Z,10.89
2019-05-15T10:35:59.034Z,10.85
2019-05-15T10:38:32.028Z,10.66
2019-05-15T10:41:09.366Z,10.78
2019-05-15T10:43:46.287Z,11.22
2019-05-15T10:46:14.100Z,11.66
2019-05-15T10:48:49.241Z,11.54
2019-05-15T10:51:22.410Z,11.50
2019-05-15T10:53:54.279Z,10.50
2019-05-15T10:56:28.961Z,11.00
2019-05-15T10:59:00.110Z,11.19
2019-05-15T11:01:38.598Z,11.04
2019-05-15T11:04:10.117Z,11.00
2019-05-15T11:06:41.920Z,10.72
2019-05-15T11:09:13.658Z,11.21
2019-05-15T11:11:45.503Z,11.50
2019-05-15T11:14:18.447Z,11.42
2019-05-15T11:16:50.411Z,11.73
2019-05-15T11:19:22.186Z,11.65
2019-05-15T11:21:54.029Z,11.26
2019-05-15T11:24:28.270Z,11.45
2019-05-15T11:26:59.593Z,11.33
2019-05-15T11:29:31.577Z,10.93
2019-05-15T11:32:08.719Z,11.19
2019-05-15T11:34:38.433Z,11.44
2019-05-15T11:37:10.268Z,11.38
2019-05-15T11:39:45.856Z,11.62
2019-05-15T11:42:17.304Z,10.91
2019-05-15T11:44:49.364Z,10.74
2019-05-15T11:47:21.248Z,10.79
2019-05-15T11:49:53.123Z,10.86
2019-05-15T11:52:29.502Z,10.70
2019-05-15T11:55:01.617Z,10.83
2019-05-15T11:57:42.331Z,11.32
2019-05-15T12:00:26.431Z,11.42
2019-05-15T12:02:54.662Z,11.37
2019-05-15T12:05:31.438Z,11.50
2019-05-15T12:08:08.493Z,11.15
2019-05-15T12:10:39.771Z,11.52
2019-05-15T12:13:11.902Z,11.75
2019-05-15T12:15:44.549Z,11.78
2019-05-15T12:18:15.765Z,11.58
2019-05-15T12:20:51.724Z,11.06
2019-05-15T12:23:22.976Z,10.86
2019-05-15T12:25:54.776Z,11.16
2019-05-15T12:28:29.282Z,11.35
2019-05-15T12:31:02.270Z,11.32
2019-05-15T12:33:34.332Z,11.65
2019-05-15T12:36:10.609Z,11.40
2019-05-15T12:38:42.660Z,11.52
2019-05-15T13:01:41.790Z,12.42
2019-05-15T13:04:13.569Z,12.61
2019-05-15T13:06:49.389Z,12.62
2019-05-15T13:09:19.376Z,12.58
2019-05-15T13:11:51.202Z,12.36
2019-05-15T13:14:22.400Z,12.70
2019-05-15T13:16:53.559Z,12.86
2019-05-15T13:19:24.646Z,12.82
2019-05-15T13:21:57.920Z,12.29
2019-05-15T13:24:29.896Z,12.35
2019-05-15T13:27:01.758Z,12.46
2019-05-15T13:29:33.584Z,12.31
2019-05-15T13:32:07.910Z,12.64
2019-05-15T13:34:38.994Z,12.95
2019-05-15T13:37:26.402Z,12.65
2019-05-15T13:39:48.572Z,12.30
2019-05-15T13:42:20.417Z,12.64
2019-05-15T13:44:52.308Z,13.00
2019-05-15T13:47:24.186Z,12.92
2019-05-15T13:49:58.592Z,12.64
2019-05-15T13:52:30.603Z,12.85
2019-05-15T13:55:02.479Z,12.79
2019-05-15T13:57:35.306Z,12.72
2019-05-15T14:00:08.706Z,12.73
2019-05-15T14:03:01.902Z,12.44
2019-05-15T14:05:34.419Z,12.57
2019-05-15T14:08:06.820Z,12.84
2019-05-15T14:10:38.739Z,12.93
2019-05-15T14:13:10.863Z,12.64
2019-05-15T14:15:42.939Z,12.94
2019-05-15T14:18:15.139Z,13.36
2019-05-15T14:20:49.032Z,13.45
2019-05-15T14:23:21.448Z,13.35
2019-05-15T14:25:52.920Z,13.12
2019-05-15T16:22:23.593Z,12.22
2019-05-15T16:24:58.704Z,11.98
2019-05-15T16:28:22.475Z,11.98
2019-05-15T16:30:53.633Z,11.73
2019-05-15T16:44:24.753Z,11.51
2019-05-15T16:48:09.491Z,11.55
2019-05-15T16:51:49.397Z,11.64
2019-05-15T17:01:18.578Z,11.47
2019-05-15T17:03:49.760Z,11.39
2019-05-15T17:06:21.884Z,11.47
2019-05-15T17:08:54.329Z,11.81
2019-05-15T17:11:25.506Z,11.71
2019-05-15T17:13:59.192Z,11.77
2019-05-15T17:16:31.140Z,11.58
2019-05-15T17:19:03.583Z,11.56
2019-05-15T17:21:36.651Z,11.64
2019-05-15T17:24:08.873Z,11.63
2019-05-15T17:26:40.748Z,11.56
2019-05-15T17:29:12.259Z,11.65
2019-05-15T17:31:44.470Z,11.56
2019-05-15T17:34:18.030Z,11.57
2019-05-15T17:36:50.055Z,11.64
2019-05-15T17:39:33.627Z,11.70
2019-05-15T17:41:55.209Z,11.51
2019-05-15T17:44:28.687Z,11.72
2019-05-15T17:47:01.402Z,11.73
2019-05-15T17:49:32.852Z,11.66
2019-05-15T17:52:04.782Z,11.53
2019-05-15T17:54:38.011Z,11.43
2019-05-15T17:57:09.634Z,11.54
2019-05-15T17:59:41.444Z,11.64
2019-05-15T18:02:12.772Z,11.59
2019-05-15T18:04:44.203Z,11.59
2019-05-15T18:07:16.065Z,11.43
2019-05-15T18:09:53.935Z,11.30
2019-05-15T18:12:21.040Z,11.25
2019-05-15T18:14:53.080Z,11.11
2019-05-15T18:17:25.076Z,11.30
2019-05-15T18:19:58.066Z,11.17
2019-05-15T18:22:29.581Z,11.00
2019-05-15T18:25:00.900Z,11.01
2019-05-15T18:27:32.841Z,11.12
2019-05-15T18:30:05.141Z,11.10
2019-05-15T18:32:39.098Z,10.98
2019-05-15T18:35:09.837Z,10.86
2019-05-15T18:37:42.105Z,10.95
2019-05-15T18:40:14.424Z,10.88
2019-05-15T18:42:45.703Z,10.81
2019-05-15T18:45:18.408Z,10.62
2019-05-15T18:47:49.616Z,10.55
2019-05-15T18:50:22.060Z,10.59
2019-05-15T18:52:53.445Z,10.63
2019-05-15T18:55:24.625Z,10.70
2019-05-15T18:57:58.393Z,10.58
2019-05-15T19:00:29.917Z,10.55
2019-05-15T19:03:01.754Z,10.66
2019-05-15T19:05:33.679Z,10.59
2019-05-15T19:08:04.962Z,10.57
2019-05-15T19:10:38.606Z,10.55
2019-05-15T19:13:10.053Z,10.57
2019-05-15T19:15:42.364Z,10.56
2019-05-15T19:18:14.592Z,10.51
2019-05-15T19:20:48.540Z,10.55
2019-05-15T19:23:20.086Z,10.43
2019-05-15T19:25:52.425Z,10.43
2019-05-15T19:28:24.020Z,10.33
2019-05-15T19:30:58.351Z,10.46
2019-05-15T19:33:36.573Z,10.45
2019-05-15T19:36:02.778Z,10.54
2019-05-15T19:38:34.746Z,10.55
2019-05-15T19:41:06.779Z,10.46
2019-05-15T19:43:38.721Z,10.28
2019-05-15T19:46:13.596Z,10.34
2019-05-15T19:48:45.272Z,10.31
2019-05-15T19:51:18.325Z,10.26
2019-05-15T19:53:50.290Z,10.36
2019-05-15T19:56:22.219Z,10.19
2019-05-15T19:58:54.138Z,10.12
2019-05-15T20:01:28.036Z,9.99
2019-05-15T20:03:59.475Z,10.04
2019-05-15T20:06:31.661Z,10.00
2019-05-15T20:09:03.071Z,10.10
2019-05-15T20:11:35.885Z,9.94
2019-05-15T20:14:07.849Z,10.15
2019-05-15T22:21:11.005Z,9.00
2019-05-15T22:23:43.260Z,8.84
2019-05-15T22:26:18.618Z,8.62
2019-05-15T22:28:51.404Z,8.51
2019-05-15T22:31:26.572Z,8.54
2019-05-15T22:33:58.692Z,8.75
2019-05-15T22:36:30.094Z,8.61
2019-05-15T22:39:02.530Z,8.51
2019-05-15T22:41:38.737Z,8.45
2019-05-15T22:44:11.062Z,8.43
2019-05-15T22:46:42.522Z,8.49
2019-05-15T22:49:14.883Z,8.47
2019-05-15T22:51:48.630Z,8.43
2019-05-15T22:54:20.808Z,8.34
2019-05-15T22:56:52.965Z,8.23
2019-05-15T22:59:25.018Z,8.37
2019-05-15T23:02:00.237Z,8.40
2019-05-15T23:04:31.961Z,8.20
2019-05-15T23:07:05.044Z,8.20
2019-05-15T23:09:38.410Z,8.23
2019-05-15T23:12:11.821Z,8.28
2019-05-15T23:14:45.272Z,8.03
2019-05-15T23:17:17.302Z,7.99
2019-05-15T23:19:51.249Z,7.94
2019-05-15T23:22:24.508Z,7.98
2019-05-15T23:24:58.401Z,7.92
2019-05-15T23:27:30.189Z,7.80
2019-05-15T23:30:02.197Z,7.92
2019-05-15T23:32:35.185Z,7.92
2019-05-15T23:35:10.462Z,7.74
2019-05-15T23:37:42.485Z,7.69
2019-05-15T23:40:15.027Z,7.80
2019-05-15T23:42:49.133Z,7.73
2019-05-15T23:45:20.693Z,7.61
2019-05-15T23:47:52.722Z,7.50
2019-05-15T23:50:24.779Z,7.38
2019-05-15T23:52:58.330Z,7.41
2019-05-15T23:55:30.541Z,7.48
2019-05-15T23:58:02.481Z,7.35
